Terminal Aerodrome Forecast
Issued by NWS Amarillo, TX

Current Version | Previous Version | Text Only | Print | Product List | Glossary On
Versions: 1 2 3 4 5 6 7 8 9 10 11 12
567
FTUS44 KAMA 201720
TAFAMA
TAF
KAMA 201720Z 2018/2118 20015G23KT P6SM FEW080
     FM210200 19012KT P6SM SKC
     FM211500 22016G25KT P6SM SKC=

USA.gov is the U.S. government's official web portal to all federal, state and local government web resources and services.